createdAt,value
2023-04-07T00:04:49.233Z,100383.31
2023-04-07T00:09:52.191Z,100370.84
2023-04-07T00:14:53.795Z,100376.72
2023-04-07T00:19:55.425Z,100367.28
2023-04-07T00:24:58.405Z,100370.50
2023-04-07T00:30:00.559Z,100355.13
2023-04-07T00:35:02.698Z,100362.00
2023-04-07T00:40:07.098Z,100353.72
2023-04-07T00:45:09.743Z,100347.22
2023-04-07T00:50:11.626Z,100338.16
2023-04-07T00:55:14.676Z,100331.69
2023-04-07T01:00:16.709Z,100324.97
2023-04-07T01:05:23.547Z,100316.25
2023-04-07T01:10:36.140Z,100318.00
2023-04-07T01:15:39.705Z,100317.06
2023-04-07T01:20:44.022Z,100310.09
2023-04-07T01:26:14.749Z,100311.69
2023-04-07T01:31:18.800Z,100302.72
2023-04-07T01:36:22.101Z,100300.66
2023-04-07T01:41:25.269Z,100301.34
2023-04-07T01:46:29.128Z,100292.88
2023-04-07T01:51:32.334Z,100291.56
2023-04-07T01:56:34.313Z,100288.94
2023-04-07T02:01:37.881Z,100280.66
2023-04-07T02:06:47.267Z,100281.13
2023-04-07T02:11:50.274Z,100280.63
2023-04-07T02:16:54.982Z,100276.78
2023-04-07T02:21:57.891Z,100269.75
2023-04-07T02:26:59.753Z,100268.13
2023-04-07T02:32:06.699Z,100278.03
2023-04-07T02:37:08.732Z,100273.72
2023-04-07T02:42:10.604Z,100275.28
2023-04-07T02:47:13.681Z,100265.19
2023-04-07T02:52:15.594Z,100262.44
2023-04-07T02:57:17.375Z,100263.66
2023-04-07T03:02:20.687Z,100263.91
2023-04-07T03:07:24.050Z,100264.00
2023-04-07T03:12:25.995Z,100265.09
2023-04-07T03:17:29.468Z,100252.91
2023-04-07T03:22:31.708Z,100258.41
2023-04-07T03:27:33.887Z,100269.91
2023-04-07T03:32:37.050Z,100266.09
2023-04-07T03:37:38.867Z,100257.47
2023-04-07T03:42:40.616Z,100247.50
2023-04-07T03:47:43.960Z,100251.59
2023-04-07T03:52:46.189Z,100252.91
2023-04-07T03:57:48.006Z,100246.06
2023-04-07T04:02:51.404Z,100247.13
2023-04-07T04:07:53.265Z,100254.06
2023-04-07T04:12:55.114Z,100253.00
2023-04-07T04:17:58.545Z,100256.38
2023-04-07T04:23:00.551Z,100267.50
2023-04-07T04:28:02.154Z,100257.09
2023-04-07T04:33:05.276Z,100266.31
2023-04-07T04:38:06.986Z,100259.84
2023-04-07T04:43:08.605Z,100266.22
2023-04-07T04:48:11.733Z,100265.75
2023-04-07T04:53:13.623Z,100275.91
2023-04-07T04:58:15.713Z,100269.72
2023-04-07T05:03:19.791Z,100281.63
2023-04-07T05:08:24.355Z,100288.81
2023-04-07T05:13:25.979Z,100291.00
2023-04-07T05:18:29.214Z,100287.06
2023-04-07T05:23:30.981Z,100294.69
2023-04-07T05:28:32.594Z,100295.91
2023-04-07T05:33:35.567Z,100290.03
2023-04-07T05:38:37.200Z,100285.50
2023-04-07T05:43:38.865Z,100289.44
2023-04-07T05:48:41.822Z,100298.53
2023-04-07T05:53:43.407Z,100292.66
2023-04-07T05:58:45.076Z,100304.78
2023-04-07T06:03:48.357Z,100299.25
2023-04-07T06:08:50.236Z,100299.50
2023-04-07T06:13:51.854Z,100314.72
2023-04-07T06:18:54.901Z,100315.44
2023-04-07T06:23:56.500Z,100308.25
2023-04-07T06:28:58.400Z,100319.22
2023-04-07T06:34:01.609Z,100320.94
2023-04-07T06:39:03.719Z,100314.34
2023-04-07T06:44:06.547Z,100324.41
2023-04-07T06:49:10.692Z,100326.91
2023-04-07T06:54:12.554Z,100333.00
2023-04-07T06:59:14.577Z,100333.84
2023-04-07T07:04:17.714Z,100332.53
2023-04-07T07:09:19.426Z,100335.53
2023-04-07T07:14:21.048Z,100342.34
2023-04-07T07:19:24.096Z,100345.59
2023-04-07T07:24:25.742Z,100347.22
2023-04-07T07:29:27.403Z,100349.53
2023-04-07T07:34:30.420Z,100358.16
2023-04-07T07:39:32.173Z,100360.19
2023-04-07T07:44:33.749Z,100365.88
2023-04-07T07:49:36.990Z,100365.88
2023-04-07T07:54:38.691Z,100370.22
2023-04-07T07:59:40.448Z,100376.00
2023-04-07T08:04:43.499Z,100380.75
2023-04-07T08:09:45.173Z,100382.88
2023-04-07T08:14:46.799Z,100387.63
2023-04-07T08:19:49.868Z,100402.88
2023-04-07T08:24:51.496Z,100408.84
2023-04-07T08:29:59.621Z,100410.97
2023-04-07T08:35:02.672Z,100409.03
2023-04-07T08:40:05.299Z,100410.31
2023-04-07T08:45:08.057Z,100418.59
2023-04-07T08:50:12.081Z,100415.78
2023-04-07T08:55:13.796Z,100413.88
2023-04-07T09:00:16.116Z,100424.50
2023-04-07T09:05:19.307Z,100428.09
2023-04-07T09:10:21.388Z,100426.28
2023-04-07T09:15:23.598Z,100427.81
2023-04-07T09:20:26.745Z,100433.03
2023-04-07T09:25:28.903Z,100432.84
2023-04-07T09:30:32.012Z,100436.19
2023-04-07T09:35:51.556Z,100442.69
2023-04-07T09:41:06.114Z,100442.81
2023-04-07T09:46:09.740Z,100438.81
2023-04-07T09:51:15.246Z,100444.50
2023-04-07T09:56:18.728Z,100451.00
2023-04-07T10:01:22.212Z,100459.03
2023-04-07T10:06:26.084Z,100445.25
2023-04-07T10:11:30.651Z,100452.03
2023-04-07T10:16:32.945Z,100459.78
2023-04-07T10:21:39.364Z,100455.47
2023-04-07T10:26:42.050Z,100457.25
2023-04-07T10:31:44.792Z,100463.38
2023-04-07T10:37:11.798Z,100467.16
2023-04-07T10:42:46.551Z,100467.25
2023-04-07T10:48:15.615Z,100473.44
2023-04-07T10:53:18.647Z,100472.28
2023-04-07T10:58:22.398Z,100479.69
2023-04-07T11:03:25.771Z,100492.25
2023-04-07T11:08:34.612Z,100484.06
2023-04-07T11:13:40.828Z,100488.84
2023-04-07T11:18:43.905Z,100480.59
2023-04-07T11:23:48.448Z,100487.38
2023-04-07T11:28:52.403Z,100484.00
2023-04-07T11:33:58.202Z,100490.78
2023-04-07T11:39:03.667Z,100492.97
2023-04-07T11:44:09.984Z,100497.59
2023-04-07T11:49:14.479Z,100491.41
2023-04-07T11:54:17.739Z,100505.81
2023-04-07T11:59:21.496Z,100506.88
2023-04-07T12:04:23.437Z,100512.38
2023-04-07T12:09:29.601Z,100510.31
2023-04-07T12:14:31.692Z,100512.81
2023-04-07T12:19:33.680Z,100519.66
2023-04-07T12:24:37.055Z,100517.00
2023-04-07T12:29:38.964Z,100513.22
2023-04-07T12:34:40.697Z,100525.50
2023-04-07T12:39:43.665Z,100522.09
2023-04-07T12:44:45.513Z,100524.38
2023-04-07T12:49:49.292Z,100528.03
2023-04-07T12:54:53.486Z,100533.59
2023-04-07T12:59:55.447Z,100536.94
2023-04-07T13:04:57.134Z,100537.97
2023-04-07T13:10:00.279Z,100539.38
2023-04-07T13:15:02.667Z,100548.53
2023-04-07T13:20:05.673Z,100536.88
2023-04-07T13:25:09.362Z,100544.41
2023-04-07T13:30:12.167Z,100541.13
2023-04-07T13:35:14.031Z,100543.66
2023-04-07T13:40:17.399Z,100547.81
2023-04-07T13:45:19.470Z,100545.53
2023-04-07T13:50:21.546Z,100559.16
2023-04-07T13:55:24.583Z,100549.66
2023-04-07T14:00:26.576Z,100554.28
2023-04-07T14:05:28.455Z,100556.94
2023-04-07T14:10:31.638Z,100546.66
2023-04-07T14:15:33.582Z,100549.25
2023-04-07T14:20:35.873Z,100553.59
2023-04-07T14:25:39.080Z,100557.00
2023-04-07T14:30:40.704Z,100556.88
2023-04-07T14:35:42.444Z,100555.63
2023-04-07T14:40:45.874Z,100546.94
2023-04-07T14:45:47.565Z,100547.25
2023-04-07T14:50:53.877Z,100556.59
2023-04-07T14:56:06.580Z,100553.22
2023-04-07T15:01:08.504Z,100563.81
2023-04-07T15:06:13.139Z,100564.53
2023-04-07T15:11:16.223Z,100566.09
2023-04-07T15:16:18.221Z,100564.28
2023-04-07T15:21:20.192Z,100570.78
2023-04-07T15:26:23.435Z,100570.47
2023-04-07T15:31:25.216Z,100571.16
2023-04-07T15:36:29.496Z,100573.88
2023-04-07T15:41:32.673Z,100574.03
2023-04-07T15:46:34.287Z,100575.56
2023-04-07T15:51:38.910Z,100580.78
2023-04-07T15:56:41.873Z,100583.03
2023-04-07T16:01:43.684Z,100592.97
2023-04-07T16:06:45.450Z,100592.41
2023-04-07T16:11:48.449Z,100596.47
2023-04-07T16:16:50.056Z,100598.59
2023-04-07T16:21:52.274Z,100603.00
2023-04-07T16:26:55.273Z,100609.75
2023-04-07T16:31:56.934Z,100612.97
2023-04-07T16:36:58.724Z,100615.94
2023-04-07T16:42:01.796Z,100622.56
2023-04-07T16:47:03.531Z,100614.22
2023-04-07T16:52:05.203Z,100625.34
2023-04-07T16:57:08.153Z,100628.97
2023-04-07T17:02:10.943Z,100631.94
2023-04-07T17:07:12.769Z,100632.72
2023-04-07T17:12:15.762Z,100641.09
2023-04-07T17:17:17.480Z,100647.34
2023-04-07T17:22:19.085Z,100648.69
2023-04-07T17:27:22.054Z,100657.47
2023-04-07T17:32:23.716Z,100664.38
2023-04-07T17:37:26.568Z,100665.59
2023-04-07T17:42:29.559Z,100673.53
2023-04-07T17:47:31.260Z,100676.81
2023-04-07T17:52:32.918Z,100687.81
2023-04-07T17:57:36.265Z,100694.44
2023-04-07T18:02:38.071Z,100697.47
2023-04-07T18:07:40.022Z,100701.59
2023-04-07T18:12:42.997Z,100711.56
2023-04-07T18:17:47.818Z,100717.31
2023-04-07T18:22:51.015Z,100722.34
2023-04-07T18:27:54.205Z,100724.28
2023-04-07T18:32:55.876Z,100731.47
2023-04-07T18:37:57.493Z,100746.59
2023-04-07T18:43:00.611Z,100756.19
2023-04-07T18:48:02.436Z,100757.88
2023-04-07T18:53:04.200Z,100763.28
2023-04-07T18:58:07.213Z,100766.25
2023-04-07T19:03:09.163Z,100765.28
2023-04-07T19:08:10.972Z,100771.94
2023-04-07T19:13:13.940Z,100779.75
2023-04-07T19:18:15.575Z,100781.63
2023-04-07T19:23:17.177Z,100793.41
2023-04-07T19:28:20.558Z,100783.28
2023-04-07T19:33:22.197Z,100795.63
2023-04-07T19:38:23.820Z,100794.97
2023-04-07T19:43:26.842Z,100790.84
2023-04-07T19:48:28.475Z,100800.78
2023-04-07T19:53:30.129Z,100808.44
2023-04-07T19:58:33.509Z,100813.59
2023-04-07T20:03:35.145Z,100816.25
2023-04-07T20:08:36.900Z,100814.56
2023-04-07T20:13:41.879Z,100828.34
2023-04-07T20:18:43.985Z,100827.47
2023-04-07T20:23:45.638Z,100833.41
2023-04-07T20:28:48.907Z,100833.16
2023-04-07T20:33:50.833Z,100837.72
2023-04-07T20:38:54.354Z,100838.03
2023-04-07T20:43:57.456Z,100836.03
2023-04-07T20:48:59.070Z,100836.16
2023-04-07T20:54:00.691Z,100840.34
2023-04-07T20:59:03.739Z,100849.22
2023-04-07T21:04:05.464Z,100852.72
2023-04-07T21:09:07.214Z,100848.53
2023-04-07T21:14:10.315Z,100852.59
2023-04-07T21:19:11.949Z,100852.22
2023-04-07T21:24:13.708Z,100847.03
2023-04-07T21:29:16.699Z,100850.41
2023-04-07T21:34:18.449Z,100854.00
2023-04-07T21:39:20.055Z,100850.28
2023-04-07T21:44:23.044Z,100853.31
2023-04-07T21:49:26.721Z,100853.19
2023-04-07T21:54:28.352Z,100851.19
2023-04-07T21:59:31.398Z,100851.38
2023-04-07T22:04:33.123Z,100855.69
2023-04-07T22:09:34.790Z,100857.38
2023-04-07T22:14:37.781Z,100860.06
2023-04-07T22:19:39.387Z,100857.84
2023-04-07T22:24:41.013Z,100859.44
2023-04-07T22:29:43.989Z,100860.50
2023-04-07T22:34:45.639Z,100862.19
2023-04-07T22:39:47.370Z,100858.94
2023-04-07T22:44:50.352Z,100865.91
2023-04-07T22:49:51.964Z,100877.53
2023-04-07T22:54:53.597Z,100871.78
2023-04-07T22:59:56.575Z,100867.84
2023-04-07T23:04:58.272Z,100886.78
2023-04-07T23:10:00.172Z,100885.34
2023-04-07T23:15:03.548Z,100887.63
2023-04-07T23:20:06.443Z,100899.88
2023-04-07T23:25:08.863Z,100903.72
2023-04-07T23:30:12.901Z,100909.31
2023-04-07T23:35:14.576Z,100910.28
2023-04-07T23:40:16.462Z,100913.66
2023-04-07T23:45:20.642Z,100915.34
2023-04-07T23:50:22.516Z,100919.47
2023-04-07T23:55:24.207Z,100920.72
